Time;durP1;ratioP1;P1;durP2;ratioP2;P2;SDS_P1;SDS_P2;PMS_P1;PMS_P2;Temp;Humidity;BMP_temperature;BMP_pressure;BME280_temperature;BME280_humidity;BME280_pressure;Samples;Min_cycle;Max_cycle;Signal;HPM_P1;HPM_P2
2022/07/09 00:01:39;;;;;;;0.10;0.10;;;13.80;99.90;;;;;;4991955;28;20558;-76
2022/07/09 00:04:05;;;;;;;0.22;0.22;;;14.00;99.90;;;;;;4992176;28;20105;-76
2022/07/09 00:06:31;;;;;;;0.10;0.10;;;14.20;99.90;;;;;;4991874;28;20084;-75
2022/07/09 00:08:58;;;;;;;0.10;0.10;;;14.10;99.90;;;;;;4991674;28;20033;-76
2022/07/09 00:11:24;;;;;;;0.65;0.47;;;14.20;99.90;;;;;;4993264;28;20064;-77
2022/07/09 00:13:49;;;;;;;0.10;0.10;;;14.20;99.90;;;;;;4993202;28;20397;-76
2022/07/09 00:16:15;;;;;;;0.08;0.08;;;14.10;99.90;;;;;;4991691;28;20169;-76
2022/07/09 00:18:41;;;;;;;0.10;0.10;;;13.90;99.90;;;;;;4993350;28;20504;-76
2022/07/09 00:21:06;;;;;;;0.10;0.10;;;13.90;99.90;;;;;;4993026;28;20022;-76
2022/07/09 00:23:33;;;;;;;0.10;0.10;;;14.00;99.90;;;;;;4992935;28;20026;-76
2022/07/09 00:25:59;;;;;;;0.10;0.10;;;14.00;99.90;;;;;;4992522;28;20062;-77
2022/07/09 00:28:24;;;;;;;0.15;0.15;;;14.00;99.90;;;;;;4993756;28;20113;-78
2022/07/09 00:30:50;;;;;;;0.10;0.10;;;14.10;99.90;;;;;;4994135;28;20505;-76
2022/07/09 00:33:16;;;;;;;0.17;0.17;;;14.20;99.90;;;;;;4993838;28;20037;-76
2022/07/09 00:35:42;;;;;;;0.30;0.30;;;14.20;99.90;;;;;;4994373;28;20105;-76
2022/07/09 00:38:07;;;;;;;0.10;0.10;;;14.20;99.90;;;;;;4993864;28;20305;-75
2022/07/09 00:40:34;;;;;;;0.10;0.10;;;14.10;99.90;;;;;;4993476;28;20026;-74
2022/07/09 00:43:00;;;;;;;0.10;0.10;;;14.00;99.90;;;;;;4993938;28;20080;-73
2022/07/09 00:45:26;;;;;;;0.75;0.35;;;13.90;99.90;;;;;;4993070;28;20026;-73
2022/07/09 00:47:52;;;;;;;0.10;0.10;;;13.80;99.90;;;;;;4991731;28;20049;-73
2022/07/09 00:50:18;;;;;;;0.15;0.15;;;13.80;99.90;;;;;;4992877;28;20030;-73
2022/07/09 00:52:44;;;;;;;0.40;0.40;;;13.70;99.90;;;;;;4992650;28;20084;-73
2022/07/09 00:55:11;;;;;;;0.30;0.30;;;13.70;99.90;;;;;;4992829;28;20046;-72
2022/07/09 00:57:38;;;;;;;0.10;0.10;;;13.70;99.90;;;;;;4992679;28;20022;-73
2022/07/09 01:00:04;;;;;;;0.10;0.10;;;13.80;99.90;;;;;;5007315;23;20026;31
2022/07/09 01:02:30;;;;;;;0.10;0.10;;;13.70;99.90;;;;;;5007248;28;20097;-73
2022/07/09 01:04:56;;;;;;;0.17;0.17;;;13.60;99.90;;;;;;4994365;28;20432;-73
2022/07/09 01:07:22;;;;;;;0.20;0.20;;;13.60;99.90;;;;;;4994252;28;20033;-73
2022/07/09 01:09:48;;;;;;;0.10;0.10;;;13.50;99.90;;;;;;5011871;28;20056;-73
2022/07/09 01:12:14;;;;;;;0.10;0.10;;;13.50;99.90;;;;;;5010676;28;20021;-73
2022/07/09 01:14:40;;;;;;;0.10;0.10;;;13.50;99.90;;;;;;5010405;28;20412;-73
2022/07/09 01:17:06;;;;;;;0.10;0.10;;;13.50;99.90;;;;;;5010476;28;20030;-73
2022/07/09 01:19:33;;;;;;;0.63;0.63;;;13.30;99.90;;;;;;5011540;28;20500;-73
2022/07/09 01:21:59;;;;;;;0.20;0.20;;;13.20;99.90;;;;;;5011791;28;20478;-73
2022/07/09 01:24:27;;;;;;;0.10;0.10;;;13.20;99.90;;;;;;5010636;28;20042;-73
2022/07/09 01:26:53;;;;;;;0.95;0.90;;;13.20;99.90;;;;;;5010423;28;20478;-73
2022/07/09 01:29:20;;;;;;;0.13;0.13;;;13.40;99.90;;;;;;5011352;28;20061;-73
2022/07/09 01:31:46;;;;;;;0.10;0.10;;;13.30;99.90;;;;;;5010544;28;20076;-73
2022/07/09 01:34:12;;;;;;;0.10;0.10;;;13.50;99.90;;;;;;5010624;28;20030;-73
2022/07/09 01:36:37;;;;;;;0.47;0.47;;;13.60;99.90;;;;;;5011664;28;20045;-73
2022/07/09 01:39:04;;;;;;;1.25;0.85;;;13.70;99.90;;;;;;5010305;28;20073;-72
2022/07/09 01:41:31;;;;;;;1.08;1.08;;;13.60;99.90;;;;;;4993856;28;20022;-72
2022/07/09 01:43:58;;;;;;;0.55;0.55;;;13.20;99.90;;;;;;5011479;28;20025;-72
2022/07/09 01:46:23;;;;;;;0.25;0.25;;;13.10;99.90;;;;;;5010951;28;20033;-72
2022/07/09 01:48:49;;;;;;;0.10;0.10;;;12.90;99.90;;;;;;5013948;28;20030;-72
2022/07/09 01:51:15;;;;;;;0.32;0.32;;;13.00;99.90;;;;;;5015148;28;20812;-71
2022/07/09 01:53:41;;;;;;;0.20;0.20;;;13.00;99.90;;;;;;5013842;28;20018;-72
2022/07/09 01:56:08;;;;;;;0.40;0.40;;;13.00;99.90;;;;;;5014861;28;20022;-72
2022/07/09 01:58:34;;;;;;;0.30;0.30;;;12.90;99.90;;;;;;5013624;28;20537;-71
2022/07/09 02:01:00;;;;;;;0.30;0.30;;;12.70;99.90;;;;;;5013588;28;20161;-72
2022/07/09 02:03:26;;;;;;;0.75;0.40;;;12.70;99.90;;;;;;5014979;28;20092;-71
2022/07/09 02:05:52;;;;;;;0.20;0.20;;;12.60;99.90;;;;;;5014832;28;20026;-72
2022/07/09 02:08:17;;;;;;;0.50;0.50;;;12.60;99.90;;;;;;5014876;28;20030;-72
2022/07/09 02:10:43;;;;;;;0.20;0.20;;;12.60;99.90;;;;;;5014800;28;20056;-72
2022/07/09 02:13:09;;;;;;;0.10;0.10;;;12.70;99.90;;;;;;5013451;28;20037;-72
2022/07/09 02:15:35;;;;;;;0.20;0.20;;;12.90;99.90;;;;;;5013518;28;20116;-72
2022/07/09 02:18:00;;;;;;;0.28;0.28;;;12.90;99.90;;;;;;5013344;28;20029;-72
2022/07/09 02:20:26;;;;;;;0.10;0.10;;;12.70;99.90;;;;;;5014480;28;20396;-72
2022/07/09 02:22:52;;;;;;;0.20;0.20;;;12.60;99.90;;;;;;4996993;28;20527;-72
2022/07/09 02:25:18;;;;;;;0.10;0.10;;;12.70;99.90;;;;;;5014418;28;20026;-72
2022/07/09 02:27:44;;;;;;;0.20;0.20;;;12.80;99.90;;;;;;4997028;28;20033;-72
2022/07/09 02:30:10;;;;;;;0.10;0.10;;;12.80;99.90;;;;;;5014290;28;20018;-72
2022/07/09 02:32:38;;;;;;;0.20;0.20;;;13.00;99.90;;;;;;5013090;28;20076;-72
2022/07/09 02:35:04;;;;;;;0.10;0.10;;;13.00;99.90;;;;;;5014409;28;20026;-72
2022/07/09 02:37:30;;;;;;;0.15;0.15;;;13.00;99.90;;;;;;5012794;28;20026;-72
2022/07/09 02:39:56;;;;;;;0.10;0.10;;;13.10;99.90;;;;;;5014085;28;20033;-72
2022/07/09 02:42:22;;;;;;;0.10;0.10;;;13.10;99.90;;;;;;5014182;28;20034;-72
2022/07/09 02:44:48;;;;;;;0.40;0.40;;;13.10;99.90;;;;;;5014090;28;20026;-72
2022/07/09 02:47:13;;;;;;;0.10;0.10;;;13.00;99.90;;;;;;5013018;28;20093;-72
2022/07/09 02:49:39;;;;;;;0.20;0.20;;;12.80;99.90;;;;;;5014041;28;20053;-72
2022/07/09 02:52:06;;;;;;;0.47;0.47;;;12.80;99.90;;;;;;5014007;28;20037;-72
2022/07/09 02:54:32;;;;;;;0.15;0.15;;;12.90;99.90;;;;;;5014038;28;20084;-72
2022/07/09 02:56:58;;;;;;;0.20;0.20;;;12.90;99.90;;;;;;5012934;28;20371;-72
2022/07/09 02:59:23;;;;;;;0.10;0.10;;;12.90;99.90;;;;;;5012444;28;20030;-72
2022/07/09 03:01:49;;;;;;;0.10;0.10;;;12.90;99.90;;;;;;5013845;28;20489;-72
2022/07/09 03:04:15;;;;;;;0.20;0.20;;;13.00;99.90;;;;;;5013826;28;20042;-72
2022/07/09 03:06:40;;;;;;;0.10;0.10;;;13.00;99.90;;;;;;5012338;28;20037;-72
2022/07/09 03:09:06;;;;;;;0.20;0.20;;;13.00;99.90;;;;;;4995891;28;20022;-72
2022/07/09 03:11:32;;;;;;;3.13;0.70;;;13.10;99.90;;;;;;4996131;28;20033;-72
2022/07/09 03:13:58;;;;;;;0.17;0.17;;;13.10;99.90;;;;;;5013653;28;20037;-72
2022/07/09 03:16:23;;;;;;;0.10;0.10;;;13.10;99.90;;;;;;4996498;28;20026;-72
2022/07/09 03:18:49;;;;;;;0.20;0.20;;;13.00;99.90;;;;;;5013569;28;20054;-72
2022/07/09 03:21:15;;;;;;;0.30;0.30;;;13.00;99.90;;;;;;5013232;28;20022;-72
2022/07/09 03:23:40;;;;;;;0.40;0.40;;;13.10;99.90;;;;;;4996003;28;20488;-73
2022/07/09 03:26:06;;;;;;;0.20;0.20;;;13.10;99.90;;;;;;5013242;28;20030;-73
2022/07/09 03:28:33;;;;;;;0.20;0.20;;;13.20;99.90;;;;;;5012169;28;20030;-73
2022/07/09 03:31:00;;;;;;;0.10;0.10;;;13.20;99.90;;;;;;5011950;28;20446;-72
2022/07/09 03:33:25;;;;;;;1.45;0.63;;;13.20;99.90;;;;;;5011720;28;20081;-72
2022/07/09 03:35:53;;;;;;;0.20;0.20;;;13.40;99.90;;;;;;5013204;28;20033;-72
2022/07/09 03:38:19;;;;;;;0.10;0.10;;;13.30;99.90;;;;;;5012049;28;20030;-72
2022/07/09 03:40:45;;;;;;;0.22;0.22;;;13.10;99.90;;;;;;5011751;28;20029;-72
2022/07/09 03:43:11;;;;;;;0.20;0.20;;;13.00;99.90;;;;;;5011823;28;20082;-72
2022/07/09 03:45:36;;;;;;;1.02;0.82;;;12.80;99.90;;;;;;5011888;28;20022;-72
2022/07/09 03:48:02;;;;;;;0.10;0.10;;;12.80;99.90;;;;;;5011865;28;20029;-72
2022/07/09 03:50:28;;;;;;;0.20;0.20;;;12.80;99.90;;;;;;5012826;28;20030;-73
2022/07/09 03:52:54;;;;;;;0.10;0.10;;;12.80;99.90;;;;;;5011771;28;20053;-73
2022/07/09 03:55:20;;;;;;;0.10;0.10;;;13.00;99.90;;;;;;5011643;28;20436;-73
2022/07/09 03:57:46;;;;;;;0.47;0.47;;;13.20;99.90;;;;;;5011702;28;20026;-73
2022/07/09 04:00:12;;;;;;;0.20;0.20;;;13.50;99.90;;;;;;5011244;28;20018;-73
2022/07/09 04:02:38;;;;;;;0.15;0.15;;;13.50;99.90;;;;;;5011458;28;20091;-72
2022/07/09 04:05:04;;;;;;;0.30;0.30;;;13.60;99.90;;;;;;5011484;28;20474;-72
2022/07/09 04:07:30;;;;;;;0.20;0.20;;;13.60;99.90;;;;;;4995049;28;20028;-72
2022/07/09 04:09:56;;;;;;;0.10;0.10;;;13.80;99.90;;;;;;5011991;28;20014;-72
2022/07/09 04:12:22;;;;;;;0.20;0.20;;;13.70;99.90;;;;;;5011360;28;20116;-72
2022/07/09 04:14:48;;;;;;;0.20;0.20;;;13.60;99.90;;;;;;5011400;28;20065;-72
2022/07/09 04:17:13;;;;;;;0.13;0.13;;;13.30;99.90;;;;;;5012490;28;20112;-73
2022/07/09 04:19:39;;;;;;;0.40;0.40;;;13.40;99.90;;;;;;5012634;28;20470;-73
2022/07/09 04:22:05;;;;;;;0.10;0.10;;;13.40;99.90;;;;;;5011484;28;20525;-72
2022/07/09 04:24:31;;;;;;;0.17;0.17;;;13.50;99.90;;;;;;5012275;28;20026;-72
2022/07/09 04:26:56;;;;;;;0.20;0.20;;;13.50;99.90;;;;;;5011222;28;20388;-73
2022/07/09 04:29:23;;;;;;;1.13;0.43;;;13.40;99.90;;;;;;5010851;28;20030;-72
2022/07/09 04:31:48;;;;;;;0.20;0.20;;;13.40;99.90;;;;;;5012320;28;20021;-72
2022/07/09 04:34:14;;;;;;;0.20;0.20;;;13.50;99.90;;;;;;5012425;28;20051;-72
2022/07/09 04:36:40;;;;;;;0.25;0.25;;;13.40;99.90;;;;;;5010884;28;20050;-72
2022/07/09 04:39:06;;;;;;;0.47;0.45;;;13.30;99.90;;;;;;5011942;28;20022;-72
2022/07/09 04:41:31;;;;;;;0.35;0.35;;;13.30;99.90;;;;;;5012003;28;20018;-72
2022/07/09 04:43:57;;;;;;;0.32;0.32;;;13.30;99.90;;;;;;5011320;28;20022;-72
2022/07/09 04:46:24;;;;;;;0.20;0.20;;;13.30;99.90;;;;;;5012158;28;20026;-72
2022/07/09 04:48:50;;;;;;;0.47;0.47;;;13.40;99.90;;;;;;4994526;28;20462;-73
2022/07/09 04:51:16;;;;;;;1.98;0.40;;;13.40;99.90;;;;;;5012068;28;20169;-72
2022/07/09 04:53:42;;;;;;;0.10;0.10;;;13.40;99.90;;;;;;5010812;28;20026;-73
2022/07/09 04:56:08;;;;;;;0.20;0.20;;;13.50;99.90;;;;;;5010762;28;20054;-72
2022/07/09 04:58:36;;;;;;;1.65;1.10;;;13.60;99.90;;;;;;5010759;28;20109;-73
2022/07/09 05:01:03;;;;;;;0.35;0.35;;;13.60;99.90;;;;;;5010635;28;20034;-73
2022/07/09 05:03:29;;;;;;;0.22;0.22;;;13.60;99.90;;;;;;5012144;28;20022;-72
2022/07/09 05:05:55;;;;;;;0.10;0.10;;;13.60;99.90;;;;;;5011799;28;20041;-72
2022/07/09 05:08:21;;;;;;;0.10;0.10;;;13.50;99.90;;;;;;5011903;28;20025;-73
2022/07/09 05:10:46;;;;;;;0.20;0.20;;;13.60;99.90;;;;;;5010465;28;20026;-73
2022/07/09 05:13:12;;;;;;;0.10;0.10;;;13.80;99.90;;;;;;5011861;28;20378;-73
2022/07/09 05:15:38;;;;;;;0.10;0.10;;;13.90;99.90;;;;;;5010618;28;20036;-73
2022/07/09 05:18:04;;;;;;;5.18;0.65;;;14.00;99.90;;;;;;5007316;28;20497;-72
2022/07/09 05:20:30;;;;;;;0.10;0.10;;;14.00;99.90;;;;;;5011375;28;20092;-72
2022/07/09 05:22:56;;;;;;;0.10;0.10;;;14.10;99.90;;;;;;5014266;28;20024;-72
2022/07/09 05:25:22;;;;;;;0.30;0.30;;;14.20;99.90;;;;;;4994924;28;20037;-73
2022/07/09 05:27:48;;;;;;;0.10;0.10;;;14.40;99.90;;;;;;5012239;28;20022;-73
2022/07/09 05:30:15;;;;;;;0.10;0.10;;;14.50;99.90;;;;;;5014151;28;20072;-73
2022/07/09 05:32:41;;;;;;;0.10;0.10;;;14.80;99.90;;;;;;5015585;28;20093;-72
2022/07/09 05:35:07;;;;;;;0.95;0.95;;;15.00;99.90;;;;;;5015358;28;20107;-73
2022/07/09 05:37:39;;;;;;;0.10;0.10;;;15.00;99.90;;;;;;5015452;28;20022;-73
2022/07/09 05:40:06;;;;;;;;;;;15.10;99.90;;;;;;5006237;28;20018;-72
2022/07/09 05:42:32;;;;;;;0.10;0.10;;;15.20;99.90;;;;;;5010040;28;20365;-73
2022/07/09 05:44:59;;;;;;;0.03;0.03;;;15.60;99.90;;;;;;5014078;28;20026;-73
2022/07/09 05:47:25;;;;;;;0.63;0.63;;;15.80;99.90;;;;;;5015106;28;20026;-73
2022/07/09 05:49:50;;;;;;;0.10;0.10;;;15.90;99.90;;;;;;5013705;28;20022;-73
2022/07/09 05:52:16;;;;;;;0.10;0.10;;;16.10;99.90;;;;;;4990387;28;20033;-73
2022/07/09 05:54:42;;;;;;;0.10;0.10;;;16.20;99.90;;;;;;4994344;28;20073;-73
2022/07/09 05:57:07;;;;;;;0.10;0.10;;;16.50;99.90;;;;;;4995413;28;20054;-75
2022/07/09 05:59:33;;;;;;;0.10;0.10;;;16.40;99.90;;;;;;4995249;28;20033;-73
2022/07/09 06:02:02;;;;;;;0.10;0.10;;;16.40;99.90;;;;;;4995064;28;20038;-73
2022/07/09 06:04:28;;;;;;;0.10;0.10;;;16.30;99.90;;;;;;4993916;28;20121;-73
2022/07/09 06:06:54;;;;;;;0.10;0.10;;;16.10;99.90;;;;;;4995131;28;20029;-73
2022/07/09 06:09:20;;;;;;;0.10;0.10;;;16.30;99.90;;;;;;4993782;28;20445;-73
2022/07/09 06:11:45;;;;;;;0.10;0.10;;;16.10;99.90;;;;;;4995143;28;20023;-73
2022/07/09 06:14:11;;;;;;;0.30;0.30;;;16.20;99.90;;;;;;4995256;28;20018;-73
2022/07/09 06:16:37;;;;;;;0.55;0.17;;;16.30;99.90;;;;;;4994442;28;20390;-73
2022/07/09 06:19:03;;;;;;;0.10;0.10;;;16.30;99.90;;;;;;5012167;28;20026;-73
2022/07/09 06:21:29;;;;;;;0.10;0.10;;;16.30;99.90;;;;;;4997113;28;20541;-73
2022/07/09 06:23:54;;;;;;;0.10;0.10;;;16.40;99.90;;;;;;4994924;28;20027;-73
2022/07/09 06:26:20;;;;;;;0.30;0.30;;;16.50;99.90;;;;;;5000100;28;20053;-73
2022/07/09 06:28:46;;;;;;;0.85;0.85;;;16.60;99.90;;;;;;5014392;28;20052;-73
2022/07/09 06:31:12;;;;;;;0.30;0.30;;;16.60;99.90;;;;;;4996442;28;20026;-73
2022/07/09 06:33:38;;;;;;;0.10;0.10;;;16.80;99.90;;;;;;5014027;28;20033;-73
2022/07/09 06:36:04;;;;;;;0.10;0.10;;;16.70;99.90;;;;;;5014321;28;20488;-73
2022/07/09 06:38:30;;;;;;;0.10;0.10;;;16.80;99.90;;;;;;5014145;28;20287;-73
2022/07/09 06:40:56;;;;;;;0.10;0.10;;;16.90;99.90;;;;;;5010963;28;20042;-73
2022/07/09 06:43:22;;;;;;;0.10;0.10;;;17.10;99.90;;;;;;5011040;28;20060;-73
2022/07/09 06:45:48;;;;;;;0.10;0.10;;;17.20;99.90;;;;;;5011096;28;20385;-73
2022/07/09 06:48:13;;;;;;;0.10;0.10;;;17.30;99.90;;;;;;5012209;28;20018;-73
2022/07/09 06:50:39;;;;;;;0.17;0.17;;;17.40;99.90;;;;;;5012048;28;20105;-73
2022/07/09 06:53:05;;;;;;;0.10;0.10;;;17.40;99.90;;;;;;5010813;28;20116;-73
2022/07/09 06:55:31;;;;;;;0.63;0.63;;;17.60;99.90;;;;;;5013349;28;20049;-73
2022/07/09 06:57:57;;;;;;;0.10;0.10;;;17.80;99.90;;;;;;5012760;28;20108;-73
2022/07/09 07:00:23;;;;;;;0.05;0.05;;;18.10;99.90;;;;;;5012162;28;20116;-73
2022/07/09 07:02:50;;;;;;;0.43;0.43;;;18.30;99.90;;;;;;5016339;23;20092;-75
2022/07/09 07:05:15;;;;;;;0.10;0.10;;;18.10;99.90;;;;;;5011401;28;20030;-75
2022/07/09 07:07:41;;;;;;;0.13;0.13;;;17.90;99.90;;;;;;5013482;28;20366;-75
2022/07/09 07:10:08;;;;;;;0.10;0.10;;;18.10;99.90;;;;;;5013643;28;20397;-72
2022/07/09 07:12:34;;;;;;;0.10;0.10;;;18.10;99.90;;;;;;5012703;28;20050;-75
2022/07/09 07:15:00;;;;;;;0.10;0.10;;;18.20;99.90;;;;;;5012105;28;20072;-75
2022/07/09 07:17:26;;;;;;;0.03;0.03;;;18.30;99.90;;;;;;5013606;28;20041;-75
2022/07/09 07:19:51;;;;;;;0.30;0.30;;;18.40;99.90;;;;;;5013145;28;20033;-76
2022/07/09 07:22:17;;;;;;;0.10;0.10;;;18.40;99.90;;;;;;5013255;28;20041;-75
2022/07/09 07:24:43;;;;;;;0.10;0.10;;;18.50;99.90;;;;;;5013651;28;20030;-75
2022/07/09 07:27:08;;;;;;;0.10;0.10;;;18.70;99.90;;;;;;5013395;28;20474;-75
2022/07/09 07:29:34;;;;;;;0.05;0.05;;;18.80;99.90;;;;;;5012000;28;20022;-76
2022/07/09 07:32:00;;;;;;;1.55;0.20;;;18.90;99.40;;;;;;5013428;28;20097;-75
2022/07/09 07:34:26;;;;;;;0.10;0.10;;;19.20;98.60;;;;;;5013188;28;20386;-75
2022/07/09 07:36:51;;;;;;;0.28;0.28;;;19.20;96.10;;;;;;5013095;28;20457;-76
2022/07/09 07:39:21;;;;;;;0.10;0.10;;;19.40;96.00;;;;;;5012764;28;20070;-75
2022/07/09 07:41:47;;;;;;;0.10;0.10;;;19.80;95.90;;;;;;5013271;28;20024;-75
2022/07/09 07:44:13;;;;;;;0.10;0.10;;;20.10;93.50;;;;;;5010087;28;20444;-76
2022/07/09 07:46:39;;;;;;;0.00;0.00;;;20.30;91.80;;;;;;5012887;28;20101;-75
2022/07/09 07:49:04;;;;;;;0.05;0.05;;;20.20;90.70;;;;;;5008181;28;20027;-76
2022/07/09 07:51:30;;;;;;;0.00;0.00;;;19.90;90.30;;;;;;4989522;28;20026;-76
2022/07/09 07:53:56;;;;;;;0.00;0.00;;;19.60;92.20;;;;;;5012892;28;20022;-76
2022/07/09 07:56:22;;;;;;;0.00;0.00;;;19.60;92.60;;;;;;5011399;28;20030;-75
2022/07/09 07:58:47;;;;;;;0.10;0.10;;;19.60;93.30;;;;;;5011620;28;20462;-76
2022/07/09 08:01:13;;;;;;;0.10;0.10;;;19.70;93.60;;;;;;4995241;28;20038;-76
2022/07/09 08:03:39;;;;;;;0.10;0.10;;;19.80;92.60;;;;;;5011734;28;20030;-75
2022/07/09 08:06:07;;;;;;;0.10;0.10;;;19.80;92.10;;;;;;5012946;28;20018;-76
2022/07/09 08:08:34;;;;;;;0.10;0.10;;;19.70;93.00;;;;;;5012820;28;20018;-76
2022/07/09 08:11:00;;;;;;;0.10;0.10;;;19.80;92.80;;;;;;5012716;28;20026;-76
2022/07/09 08:13:26;;;;;;;0.00;0.00;;;19.70;91.40;;;;;;5012867;28;20022;-76
2022/07/09 08:15:52;;;;;;;0.00;0.00;;;19.40;91.60;;;;;;5012654;28;20030;-76
2022/07/09 08:18:18;;;;;;;0.70;0.25;;;19.30;91.10;;;;;;5012796;28;20129;-75
2022/07/09 08:20:43;;;;;;;0.13;0.13;;;19.50;90.30;;;;;;5012475;28;20026;-76
2022/07/09 08:23:10;;;;;;;0.65;0.65;;;19.60;89.60;;;;;;5012360;28;20036;-76
2022/07/09 08:25:36;;;;;;;0.00;0.00;;;19.80;89.40;;;;;;5012494;28;20057;-76
2022/07/09 08:28:02;;;;;;;0.10;0.10;;;20.00;86.90;;;;;;5012531;28;20026;-76
2022/07/09 08:30:28;;;;;;;0.10;0.10;;;20.20;85.50;;;;;;5012400;28;20022;-75
2022/07/09 08:32:54;;;;;;;0.10;0.10;;;20.10;84.50;;;;;;5012312;28;20026;-76
2022/07/09 08:35:19;;;;;;;0.10;0.10;;;20.30;85.40;;;;;;5009692;28;20029;-76
2022/07/09 08:37:45;;;;;;;0.00;0.00;;;20.40;82.90;;;;;;5011077;28;20025;-76
2022/07/09 08:40:11;;;;;;;0.00;0.00;;;20.50;84.10;;;;;;5000548;28;20030;-77
2022/07/09 08:42:37;;;;;;;0.03;0.03;;;20.70;83.30;;;;;;5009701;28;20033;-76
2022/07/09 08:45:10;;;;;;;0.13;0.13;;;21.00;79.10;;;;;;4992572;28;20501;-76
2022/07/09 08:47:36;;;;;;;0.10;0.10;;;21.10;78.40;;;;;;4991463;28;20023;-76
2022/07/09 08:50:02;;;;;;;0.10;0.10;;;20.80;79.70;;;;;;5007288;28;20046;-76
2022/07/09 08:52:28;;;;;;;0.00;0.00;;;20.70;80.90;;;;;;4992640;28;20022;-76
2022/07/09 08:54:55;;;;;;;0.10;0.10;;;20.60;81.00;;;;;;4991280;28;20474;-76
2022/07/09 08:57:20;;;;;;;0.05;0.05;;;20.60;80.00;;;;;;5008916;28;20030;-76
2022/07/09 08:59:47;;;;;;;2.67;0.30;;;20.80;80.90;;;;;;5008995;28;20441;-76
2022/07/09 09:02:13;;;;;;;0.00;0.00;;;20.80;77.20;;;;;;4973324;28;20125;-76
2022/07/09 09:04:40;;;;;;;0.00;0.00;;;20.90;77.50;;;;;;4992306;28;20033;-76
2022/07/09 09:07:19;;;;;;;0.20;0.20;;;21.20;77.20;;;;;;4999898;28;20026;-76
2022/07/09 09:09:45;;;;;;;0.00;0.00;;;21.50;75.60;;;;;;5011863;28;20068;-76
2022/07/09 09:12:13;;;;;;;0.00;0.00;;;21.70;73.10;;;;;;5010796;28;20022;-76
2022/07/09 09:14:39;;;;;;;0.00;0.00;;;22.00;71.40;;;;;;5011097;28;20026;-76
2022/07/09 09:17:09;;;;;;;0.00;0.00;;;22.00;71.80;;;;;;5011954;28;20101;-76
2022/07/09 09:19:35;;;;;;;0.10;0.10;;;22.00;71.40;;;;;;5011749;28;20026;-76
2022/07/09 09:22:01;;;;;;;0.10;0.10;;;21.90;70.80;;;;;;5011930;28;20045;-76
2022/07/09 09:24:28;;;;;;;0.10;0.10;;;22.50;70.90;;;;;;5010567;28;20118;-76
2022/07/09 09:27:01;;;;;;;0.10;0.10;;;22.50;67.90;;;;;;5011911;28;20050;-76
2022/07/09 09:29:27;;;;;;;1.00;0.30;;;22.50;67.60;;;;;;5011983;28;20101;-76
2022/07/09 09:31:54;;;;;;;0.10;0.10;;;22.70;69.80;;;;;;5011903;28;20076;-76
2022/07/09 09:34:20;;;;;;;0.30;0.30;;;22.80;68.40;;;;;;5011762;28;20030;-76
2022/07/09 09:36:54;;;;;;;0.00;0.00;;;22.70;67.50;;;;;;5012071;28;20125;-76
2022/07/09 09:39:24;;;;;;;0.30;0.30;;;22.30;66.90;;;;;;4994133;28;20026;-76
2022/07/09 09:42:01;;;;;;;0.20;0.20;;;22.10;64.40;;;;;;5011889;28;20026;-76
2022/07/09 09:44:37;;;;;;;0.00;0.00;;;22.20;64.90;;;;;;5011768;28;20045;-76
2022/07/09 09:47:04;;;;;;;0.05;0.05;;;22.40;65.40;;;;;;5010417;28;20437;-76
2022/07/09 09:49:30;;;;;;;0.03;0.03;;;22.80;64.70;;;;;;5011521;28;20434;-77
2022/07/09 09:52:03;;;;;;;0.00;0.00;;;23.10;63.60;;;;;;5010371;28;20121;-77
2022/07/09 09:54:31;;;;;;;0.00;0.00;;;23.40;63.70;;;;;;5010551;28;20076;-76
2022/07/09 09:56:58;;;;;;;0.28;0.28;;;23.70;63.90;;;;;;5011775;28;20097;-76
2022/07/09 09:59:24;;;;;;;0.00;0.00;;;23.40;62.60;;;;;;5011425;28;20018;-76
2022/07/09 10:01:51;;;;;;;0.00;0.00;;;23.60;65.00;;;;;;5011476;28;20060;-76
2022/07/09 10:04:16;;;;;;;0.00;0.00;;;23.90;62.90;;;;;;5010222;28;20113;-76
2022/07/09 10:06:43;;;;;;;0.65;0.43;;;23.90;61.10;;;;;;5007895;28;20099;-77
2022/07/09 10:09:11;;;;;;;0.03;0.03;;;23.50;60.50;;;;;;5013084;28;20025;-76
2022/07/09 10:11:45;;;;;;;0.00;0.00;;;24.00;61.30;;;;;;5015125;28;20025;-77
2022/07/09 10:14:24;;;;;;;0.00;0.00;;;24.50;59.20;;;;;;5015175;28;20022;-76
2022/07/09 10:16:52;;;;;;;0.00;0.00;;;25.00;58.40;;;;;;5012203;28;20033;-77
2022/07/09 10:19:26;;;;;;;0.00;0.00;;;25.50;58.00;;;;;;5008117;28;20339;-77
2022/07/09 10:21:54;;;;;;;0.10;0.10;;;25.70;56.50;;;;;;5014929;28;20085;-76
2022/07/09 10:24:27;;;;;;;1.48;0.55;;;25.90;56.80;;;;;;5002913;28;20028;-77
2022/07/09 10:27:09;;;;;;;0.00;0.00;;;25.50;56.30;;;;;;4994087;28;20042;-76
2022/07/09 10:29:51;;;;;;;0.00;0.00;;;25.60;56.80;;;;;;4995078;28;20022;-77
2022/07/09 10:32:31;;;;;;;0.00;0.00;;;25.10;58.30;;;;;;4995048;28;20033;-77
2022/07/09 10:35:04;;;;;;;0.10;0.10;;;24.00;60.30;;;;;;4993757;28;20038;-76
2022/07/09 10:37:53;;;;;;;0.00;0.00;;;23.70;62.00;;;;;;4995065;28;20389;-76
2022/07/09 10:40:19;;;;;;;0.35;0.35;;;23.20;59.20;;;;;;4994827;28;20027;-76
2022/07/09 10:43:00;;;;;;;0.00;0.00;;;23.10;57.00;;;;;;4993659;28;20638;-76
2022/07/09 10:45:31;;;;;;;0.35;0.35;;;23.20;56.90;;;;;;4994784;28;20470;-76
2022/07/09 10:48:01;;;;;;;0.00;0.00;;;24.00;56.00;;;;;;4994846;28;20023;-76
2022/07/09 10:50:29;;;;;;;0.00;0.00;;;24.50;56.50;;;;;;4994564;28;20033;-77
2022/07/09 10:52:55;;;;;;;0.00;0.00;;;24.90;54.40;;;;;;4994736;28;20500;-77
2022/07/09 10:55:24;;;;;;;0.00;0.00;;;24.70;56.30;;;;;;4994752;28;20065;-76
2022/07/09 10:57:49;;;;;;;0.10;0.10;;;24.30;55.30;;;;;;4993421;28;20397;-76
2022/07/09 11:00:27;;;;;;;0.00;0.00;;;24.00;54.70;;;;;;4993100;28;20034;-76
2022/07/09 11:03:01;;;;;;;0.00;0.00;;;24.20;53.30;;;;;;4994466;28;20080;-76
2022/07/09 11:05:28;;;;;;;0.00;0.00;;;24.10;54.40;;;;;;4993307;28;20018;-76
2022/07/09 11:07:55;;;;;;;2.10;0.38;;;23.80;55.20;;;;;;4994358;28;20409;-77
2022/07/09 11:10:20;;;;;;;0.00;0.00;;;23.70;55.40;;;;;;4992936;28;20018;-76
2022/07/09 11:12:49;;;;;;;0.00;0.00;;;23.60;56.40;;;;;;4994376;28;20547;-75
2022/07/09 11:15:19;;;;;;;0.10;0.10;;;23.40;55.90;;;;;;4994351;28;20478;-76
2022/07/09 11:17:54;;;;;;;0.20;0.20;;;23.70;56.90;;;;;;4993128;28;20035;-75
2022/07/09 11:20:20;;;;;;;0.00;0.00;;;24.10;56.00;;;;;;4992895;28;20041;-76
2022/07/09 11:22:48;;;;;;;0.10;0.10;;;24.10;55.90;;;;;;4994098;28;20393;-75
2022/07/09 11:25:15;;;;;;;0.00;0.00;;;24.30;54.10;;;;;;4994032;28;20058;-76
2022/07/09 11:27:41;;;;;;;0.20;0.20;;;24.00;54.60;;;;;;4992791;28;20050;-76
2022/07/09 11:30:11;;;;;;;0.10;0.10;;;24.00;54.60;;;;;;4993672;28;20109;-76
2022/07/09 11:32:37;;;;;;;0.00;0.00;;;24.00;54.70;;;;;;4992633;28;20401;-77
2022/07/09 11:35:03;;;;;;;0.10;0.10;;;24.50;54.20;;;;;;4992684;28;20118;-76
2022/07/09 11:37:29;;;;;;;0.15;0.15;;;24.70;51.90;;;;;;4993825;28;20034;-76
2022/07/09 11:39:54;;;;;;;0.00;0.00;;;24.50;52.20;;;;;;4992339;28;20141;-76
2022/07/09 11:42:20;;;;;;;0.00;0.00;;;24.60;52.20;;;;;;4993829;28;20041;-76
2022/07/09 11:44:59;;;;;;;0.00;0.00;;;24.60;53.40;;;;;;4993734;28;20528;-77
2022/07/09 11:47:45;;;;;;;0.00;0.00;;;24.70;53.90;;;;;;4993658;28;20030;-77
2022/07/09 11:50:13;;;;;;;0.00;0.00;;;25.00;52.90;;;;;;4992112;28;20027;-76
2022/07/09 11:52:49;;;;;;;0.00;0.00;;;24.80;52.70;;;;;;4993647;28;20026;-76
2022/07/09 11:55:18;;;;;;;0.00;0.00;;;25.10;53.60;;;;;;4995008;28;20114;-76
2022/07/09 11:58:06;;;;;;;0.00;0.00;;;25.60;52.70;;;;;;5009624;28;20025;-76
2022/07/09 12:00:39;;;;;;;0.17;0.00;;;25.20;51.50;;;;;;5012750;28;20045;-76
2022/07/09 12:03:05;;;;;;;0.43;0.38;;;25.40;51.80;;;;;;5011736;28;20072;-76
2022/07/09 12:05:36;;;;;;;0.00;0.00;;;25.60;50.70;;;;;;4996446;28;20451;-76
2022/07/09 12:08:07;;;;;;;0.10;0.10;;;25.40;49.20;;;;;;4993257;28;20065;-76
2022/07/09 12:10:35;;;;;;;0.00;0.00;;;25.30;49.90;;;;;;5012750;28;20022;-76
2022/07/09 12:13:02;;;;;;;0.10;0.10;;;25.00;51.10;;;;;;5005375;28;20054;-79
2022/07/09 12:15:28;;;;;;;0.00;0.00;;;25.30;51.50;;;;;;4995167;28;20033;-77
2022/07/09 12:17:59;;;;;;;0.00;0.00;;;25.20;50.70;;;;;;5003865;28;20040;-77
2022/07/09 12:20:30;;;;;;;0.10;0.10;;;24.80;52.50;;;;;;5011302;28;20504;-77
2022/07/09 12:22:56;;;;;;;0.00;0.00;;;24.50;53.50;;;;;;5011353;28;20596;-77
2022/07/09 12:25:22;;;;;;;0.00;0.00;;;24.30;53.50;;;;;;5012679;28;20042;-76
2022/07/09 12:27:49;;;;;;;0.43;0.30;;;24.20;54.30;;;;;;5011325;28;20032;-77
2022/07/09 12:30:15;;;;;;;0.00;0.00;;;24.30;53.30;;;;;;5010505;28;20026;-77
2022/07/09 12:32:42;;;;;;;0.00;0.00;;;24.10;54.20;;;;;;5012659;28;20029;-77
2022/07/09 12:35:09;;;;;;;0.80;0.80;;;24.40;53.10;;;;;;5011199;28;20664;-76
2022/07/09 12:37:36;;;;;;;0.30;0.30;;;24.30;51.80;;;;;;5012637;28;20075;-77
2022/07/09 12:40:04;;;;;;;0.00;0.00;;;24.30;52.20;;;;;;5012433;28;20113;-76
2022/07/09 12:42:30;;;;;;;0.00;0.00;;;24.50;51.20;;;;;;5012364;28;20026;-77
2022/07/09 12:44:56;;;;;;;0.00;0.00;;;24.60;51.90;;;;;;5011530;28;20619;-76
2022/07/09 12:47:22;;;;;;;0.13;0.10;;;24.50;51.60;;;;;;5011195;28;20386;-76